Sojourner — WDD2793 — position and weather

sailwx.info

Track history (hours):
 
Tides and Currents Weather Stations Pressure Air Temp Water Temp Dewpoint Dewpoint Depression Visibility Wind Speed Wind Dir Waves Ship Positions

Sojourner

Owner: Bolton Jr., Richard E, Stow, MA. More information available from US FCC via Universal Licensing System and Coast Guard Vessel Documentation Center.

Last reported at 2017-Aug-25 19:50 UTC. Time now 2017-Sep-21 08:58 UTC.
Position N 43°38' W 070°13'.
Warning: this ship's position is 26 days out of date.

Length 14 m.

Type: Sailing vessel. MMSI: 367119990.

Date/timePositionNaut miles runAvg speedWind from/ knotsBaromVisibWave heightAir tempDewpointWater temp
2017-Aug-25 19:50N 43°38' W 070°13'2 6.0
2017-Aug-25 19:29N 43°40' W 070°14'3 6.1
2017-Aug-25 19:00N 43°42' W 070°11'3 6.6
2017-Aug-25 18:30N 43°45' W 070°08'3 5.5
2017-Aug-25 18:00N 43°43' W 070°11'3 5.0
2017-Aug-25 17:30N 43°41' W 070°13'2 3.7
2017-Aug-25 16:57N 43°39' W 070°15'0 0.0
2017-Aug-24 20:44N 43°39' W 070°15'0 1.5
2017-Aug-24 20:30N 43°39' W 070°15'8 1.4
2017-Aug-24 14:25N 43°45' W 070°06'2 4.7
2017-Aug-24 14:00N 43°45' W 070°04'3 5.0
2017-Aug-24 13:30N 43°44' W 070°01'2 0.0
2017-Aug-22 22:41N 43°45' W 069°59'0 2.3
2017-Aug-22 22:30N 43°45' W 069°60'3 5.4
2017-Aug-22 22:00N 43°42' W 070°00'2 4.7
2017-Aug-22 21:30N 43°45' W 069°59'3 5.6
2017-Aug-22 20:57N 43°47' W 069°56'1 1.8
2017-Aug-22 20:27N 43°47' W 069°55'2 5.1
2017-Aug-22 20:00N 43°45' W 069°56'3 5.4
2017-Aug-22 19:30N 43°43' W 069°58'3 5.0
2017-Aug-22 19:00N 43°44' W 070°02'1 0.4
2017-Aug-22 16:45N 43°44' W 070°02'1 3.1
2017-Aug-22 16:31N 43°44' W 070°02'2 3.4
2017-Aug-22 16:00N 43°43' W 070°00'2 4.4
2017-Aug-22 15:30N 43°43' W 069°57'3 5.5
2017-Aug-22 15:00N 43°46' W 069°55'2 3.0
2017-Aug-22 14:27N 43°47' W 069°55'2 5.0
2017-Aug-22 14:00N 43°46' W 069°57'3 6.7
2017-Aug-22 13:30N 43°43' W 069°59'1 2.8
2017-Aug-22 13:00N 43°44' W 070°00'1 2.7
2017-Aug-22 12:30N 43°45' W 069°59'  
Track history (hours):
 
Tides and Currents Weather Stations Pressure Air Temp Water Temp Dewpoint Dewpoint Depression Visibility Wind Speed Wind Dir Waves Ship Positions

Sojourner

Owner: Bolton Jr., Richard E, Stow, MA. More information available from US FCC via Universal Licensing System and Coast Guard Vessel Documentation Center.

Last reported at 2017-Aug-25 19:50 UTC. Time now 2017-Sep-21 08:58 UTC.
Position N 43°38' W 070°13'.
Warning: this ship's position is 26 days out of date.

Length 14 m.

Type: Sailing vessel. MMSI: 367119990.

Date/timePositionNaut miles runAvg speedWind from/ knotsBaromVisibWave heightAir tempDewpointWater temp
2017-Aug-25 19:50N 43°38' W 070°13'2 6.0
2017-Aug-25 19:29N 43°40' W 070°14'3 6.1
2017-Aug-25 19:00N 43°42' W 070°11'3 6.6
2017-Aug-25 18:30N 43°45' W 070°08'3 5.5
2017-Aug-25 18:00N 43°43' W 070°11'3 5.0
2017-Aug-25 17:30N 43°41' W 070°13'2 3.7
2017-Aug-25 16:57N 43°39' W 070°15'0 0.0
2017-Aug-24 20:44N 43°39' W 070°15'0 1.5
2017-Aug-24 20:30N 43°39' W 070°15'8 1.4
2017-Aug-24 14:25N 43°45' W 070°06'2 4.7
2017-Aug-24 14:00N 43°45' W 070°04'3 5.0
2017-Aug-24 13:30N 43°44' W 070°01'2 0.0
2017-Aug-22 22:41N 43°45' W 069°59'0 2.3
2017-Aug-22 22:30N 43°45' W 069°60'3 5.4
2017-Aug-22 22:00N 43°42' W 070°00'2 4.7
2017-Aug-22 21:30N 43°45' W 069°59'3 5.6
2017-Aug-22 20:57N 43°47' W 069°56'1 1.8
2017-Aug-22 20:27N 43°47' W 069°55'2 5.1
2017-Aug-22 20:00N 43°45' W 069°56'3 5.4
2017-Aug-22 19:30N 43°43' W 069°58'3 5.0
2017-Aug-22 19:00N 43°44' W 070°02'1 0.4
2017-Aug-22 16:45N 43°44' W 070°02'1 3.1
2017-Aug-22 16:31N 43°44' W 070°02'2 3.4
2017-Aug-22 16:00N 43°43' W 070°00'2 4.4
2017-Aug-22 15:30N 43°43' W 069°57'3 5.5
2017-Aug-22 15:00N 43°46' W 069°55'2 3.0
2017-Aug-22 14:27N 43°47' W 069°55'2 5.0
2017-Aug-22 14:00N 43°46' W 069°57'3 6.7
2017-Aug-22 13:30N 43°43' W 069°59'1 2.8
2017-Aug-22 13:00N 43°44' W 070°00'1 2.7
2017-Aug-22 12:30N 43°45' W 069°59'  

Dump ship's entire track history